createdAt,value
2022-10-05T00:02:22.946Z,13.96
2022-10-05T00:04:53.088Z,13.92
2022-10-05T00:07:21.063Z,13.90
2022-10-05T00:09:59.670Z,13.91
2022-10-05T00:12:27.492Z,13.97
2022-10-05T00:14:58.125Z,13.97
2022-10-05T00:17:26.682Z,13.99
2022-10-05T00:19:54.062Z,13.95
2022-10-05T00:22:30.147Z,13.98
2022-10-05T00:24:58.401Z,13.98
2022-10-05T00:27:27.082Z,13.94
2022-10-05T00:29:58.810Z,13.95
2022-10-05T00:32:25.265Z,13.97
2022-10-05T00:34:51.936Z,13.97
2022-10-05T00:37:18.508Z,13.94
2022-10-05T00:39:45.414Z,13.97
2022-10-05T00:42:30.489Z,13.96
2022-10-05T00:44:58.257Z,13.94
2022-10-05T00:47:39.821Z,13.98
2022-10-05T00:50:25.420Z,13.95
2022-10-05T00:53:00.925Z,13.93
2022-10-05T00:55:33.498Z,13.91
2022-10-05T00:58:03.844Z,13.89
2022-10-05T01:00:33.378Z,13.88
2022-10-05T01:03:13.889Z,13.92
2022-10-05T01:05:47.975Z,13.88
2022-10-05T01:08:30.166Z,13.88
2022-10-05T01:11:02.507Z,13.92
2022-10-05T01:13:51.912Z,13.83
2022-10-05T01:16:31.344Z,13.82
2022-10-05T01:18:57.749Z,13.89
2022-10-05T01:21:28.387Z,13.91
2022-10-05T01:24:33.076Z,13.92
2022-10-05T01:27:13.888Z,13.96
2022-10-05T01:29:45.184Z,13.96
2022-10-05T01:32:23.802Z,14.01
2022-10-05T01:35:09.503Z,14.04
2022-10-05T01:37:40.091Z,14.03
2022-10-05T01:40:19.761Z,14.06
2022-10-05T01:43:20.302Z,14.09
2022-10-05T01:46:45.483Z,14.08
2022-10-05T01:49:21.004Z,14.05
2022-10-05T01:52:22.400Z,14.04
2022-10-05T01:55:07.882Z,14.07
2022-10-05T01:57:52.918Z,14.07
2022-10-05T02:00:19.918Z,14.10
2022-10-05T02:02:50.951Z,14.09
2022-10-05T02:05:23.354Z,14.10
2022-10-05T02:08:03.966Z,14.12
2022-10-05T02:10:38.294Z,14.12
2022-10-05T02:13:10.720Z,14.11
2022-10-05T02:15:46.660Z,14.11
2022-10-05T02:18:18.103Z,14.09
2022-10-05T02:20:46.186Z,14.08
2022-10-05T02:23:21.138Z,14.08
2022-10-05T02:25:49.764Z,14.10
2022-10-05T02:28:21.139Z,14.11
2022-10-05T02:30:52.883Z,14.11
2022-10-05T02:33:28.489Z,14.10
2022-10-05T02:36:00.662Z,14.11
2022-10-05T02:38:37.340Z,14.15
2022-10-05T02:41:03.757Z,14.13
2022-10-05T02:43:41.979Z,14.13
2022-10-05T02:46:18.553Z,14.11
2022-10-05T02:48:58.468Z,14.10
2022-10-05T02:51:28.882Z,14.07
2022-10-05T02:54:19.772Z,14.07
2022-10-05T02:57:05.260Z,14.04
2022-10-05T02:59:35.979Z,14.07
2022-10-05T03:02:12.327Z,14.04
2022-10-05T03:05:01.943Z,14.02
2022-10-05T03:07:58.704Z,14.04
2022-10-05T03:10:44.579Z,14.09
2022-10-05T03:13:28.828Z,14.11
2022-10-05T03:16:06.856Z,14.09
2022-10-05T03:18:52.736Z,14.11
2022-10-05T03:21:34.183Z,14.08
2022-10-05T03:24:25.426Z,14.07
2022-10-05T03:27:36.370Z,14.06
2022-10-05T03:30:13.941Z,14.09
2022-10-05T03:32:54.748Z,14.04
2022-10-05T03:35:35.745Z,14.01
2022-10-05T03:38:16.143Z,14.01
2022-10-05T03:41:19.439Z,14.03
2022-10-05T03:44:10.029Z,14.03
2022-10-05T03:47:13.034Z,14.01
2022-10-05T03:49:48.074Z,14.00
2022-10-05T03:52:17.702Z,14.01
2022-10-05T03:54:50.376Z,14.01
2022-10-05T03:57:36.170Z,14.01
2022-10-05T04:00:08.861Z,14.03
2022-10-05T04:03:01.071Z,13.98
2022-10-05T04:05:30.681Z,13.94
2022-10-05T04:08:01.723Z,13.88
2022-10-05T04:10:33.358Z,13.82
2022-10-05T04:13:46.257Z,13.79
2022-10-05T04:16:28.233Z,13.80
2022-10-05T04:19:13.367Z,13.81
2022-10-05T04:21:56.201Z,13.83
2022-10-05T04:24:37.368Z,13.88
2022-10-05T04:27:09.186Z,13.91
2022-10-05T04:29:41.750Z,13.97
2022-10-05T04:32:41.946Z,13.96
2022-10-05T04:35:14.351Z,13.97
2022-10-05T04:37:53.522Z,13.98
2022-10-05T04:40:33.497Z,13.98
2022-10-05T04:43:09.480Z,13.99
2022-10-05T04:45:48.323Z,13.98
2022-10-05T04:48:25.479Z,13.97
2022-10-05T04:51:13.196Z,13.98
2022-10-05T04:53:46.107Z,13.94
2022-10-05T04:56:19.283Z,13.97
2022-10-05T04:58:57.757Z,13.94
2022-10-05T05:01:47.571Z,13.95
2022-10-05T05:04:47.136Z,13.94
2022-10-05T05:07:52.812Z,13.92
2022-10-05T05:10:55.307Z,13.95
2022-10-05T05:13:49.470Z,13.95
2022-10-05T05:16:28.035Z,13.92
2022-10-05T05:19:01.964Z,13.92
2022-10-05T05:21:57.720Z,13.90
2022-10-05T05:25:01.057Z,13.88
2022-10-05T05:27:30.318Z,13.90
2022-10-05T05:30:23.049Z,13.86
2022-10-05T05:33:24.945Z,13.90
2022-10-05T05:36:26.339Z,13.89
2022-10-05T05:39:01.123Z,13.88
2022-10-05T05:41:46.548Z,13.87
2022-10-05T05:44:26.189Z,13.89
2022-10-05T05:47:11.087Z,13.89
2022-10-05T05:49:46.907Z,13.90
2022-10-05T05:52:22.394Z,13.90
2022-10-05T05:54:50.103Z,13.89
2022-10-05T05:57:28.244Z,13.92
2022-10-05T05:59:56.756Z,13.90
2022-10-05T06:02:37.874Z,13.90
2022-10-05T06:05:21.032Z,13.93
2022-10-05T06:07:47.525Z,13.92
2022-10-05T06:10:42.325Z,13.95
2022-10-05T06:13:19.690Z,13.94
2022-10-05T06:15:54.265Z,13.95
2022-10-05T06:18:21.766Z,13.93
2022-10-05T06:21:10.268Z,13.93
2022-10-05T06:24:01.034Z,13.94
2022-10-05T06:26:43.062Z,13.96
2022-10-05T06:29:16.626Z,13.97
2022-10-05T06:31:47.888Z,13.98
2022-10-05T06:34:20.211Z,13.98
2022-10-05T06:36:52.971Z,13.97
2022-10-05T06:39:44.058Z,13.98
2022-10-05T06:42:36.919Z,13.98
2022-10-05T06:45:30.927Z,14.01
2022-10-05T06:48:33.980Z,13.99
2022-10-05T06:51:16.768Z,14.00
2022-10-05T06:54:11.346Z,14.02
2022-10-05T06:56:45.569Z,14.06
2022-10-05T06:59:22.510Z,14.02
2022-10-05T07:01:49.422Z,14.01
2022-10-05T07:04:44.176Z,14.01
2022-10-05T07:07:29.284Z,14.01
2022-10-05T07:10:26.279Z,13.99
2022-10-05T07:13:27.851Z,14.02
2022-10-05T07:16:32.112Z,14.03
2022-10-05T07:19:29.279Z,14.02
2022-10-05T07:21:58.586Z,14.03
2022-10-05T07:24:30.617Z,14.01
2022-10-05T07:27:23.074Z,14.00
2022-10-05T07:29:55.794Z,13.98
2022-10-05T07:32:40.275Z,13.99
2022-10-05T07:35:34.444Z,14.02
2022-10-05T07:38:02.733Z,14.05
2022-10-05T07:41:03.352Z,14.08
2022-10-05T07:44:01.149Z,14.12
2022-10-05T07:46:56.721Z,14.19
2022-10-05T07:49:41.852Z,14.22
2022-10-05T07:52:20.346Z,14.26
2022-10-05T07:55:16.841Z,14.32
2022-10-05T07:58:21.634Z,14.37
2022-10-05T08:01:05.716Z,14.36
2022-10-05T08:03:52.222Z,14.37
2022-10-05T08:06:30.266Z,14.39
2022-10-05T08:09:01.689Z,14.43
2022-10-05T08:11:33.822Z,14.44
2022-10-05T08:14:01.773Z,14.47
2022-10-05T08:16:31.204Z,14.47
2022-10-05T08:18:59.736Z,14.41
2022-10-05T08:21:33.158Z,14.47
2022-10-05T08:24:27.849Z,14.48
2022-10-05T08:27:06.364Z,14.50
2022-10-05T08:29:40.604Z,14.58
2022-10-05T08:32:51.819Z,14.58
2022-10-05T08:35:43.664Z,14.65
2022-10-05T08:38:16.553Z,14.58
2022-10-05T08:40:42.963Z,14.61
2022-10-05T08:43:39.828Z,14.61
2022-10-05T08:46:42.639Z,14.58
2022-10-05T08:49:22.914Z,14.52
2022-10-05T08:52:01.746Z,14.51
2022-10-05T08:54:41.313Z,14.52
2022-10-05T08:57:31.906Z,14.56
2022-10-05T09:00:21.686Z,14.65
2022-10-05T09:03:15.888Z,14.74
2022-10-05T09:05:58.287Z,14.80
2022-10-05T09:09:03.220Z,14.73
2022-10-05T09:11:36.508Z,14.69
2022-10-05T09:14:38.893Z,14.77
2022-10-05T09:17:23.190Z,14.71
2022-10-05T09:19:53.431Z,14.72
2022-10-05T09:22:41.498Z,14.68
2022-10-05T09:25:19.983Z,14.79
2022-10-05T09:27:56.934Z,14.78
2022-10-05T09:30:38.722Z,14.79
2022-10-05T09:33:27.041Z,14.79
2022-10-05T09:36:24.372Z,14.78
2022-10-05T09:39:14.041Z,14.84
2022-10-05T09:42:07.196Z,14.81
2022-10-05T09:44:52.422Z,14.75
2022-10-05T09:47:37.530Z,14.76
2022-10-05T09:50:22.774Z,14.83
2022-10-05T09:53:11.092Z,14.97
2022-10-05T09:56:13.998Z,14.96
2022-10-05T09:58:56.031Z,14.99
2022-10-05T10:01:33.971Z,14.96
2022-10-05T10:04:10.282Z,15.05
2022-10-05T10:07:03.491Z,15.04
2022-10-05T10:09:51.964Z,15.03
2022-10-05T10:12:36.984Z,15.05
2022-10-05T10:15:26.913Z,15.11
2022-10-05T10:18:19.251Z,15.07
2022-10-05T10:21:14.446Z,15.03
2022-10-05T10:23:50.880Z,14.99
2022-10-05T10:26:35.990Z,15.05
2022-10-05T10:29:20.654Z,15.14
2022-10-05T10:31:50.387Z,15.08
2022-10-05T10:34:37.559Z,15.08
2022-10-05T10:37:41.495Z,15.03
2022-10-05T10:40:20.223Z,15.05
2022-10-05T10:43:23.858Z,15.03
2022-10-05T10:45:56.618Z,15.02
2022-10-05T10:48:29.131Z,15.06
2022-10-05T10:51:32.502Z,15.03
2022-10-05T10:54:19.065Z,15.06
2022-10-05T10:57:04.391Z,15.05
2022-10-05T11:00:01.474Z,15.08
2022-10-05T11:02:55.411Z,15.15
2022-10-05T11:05:35.254Z,15.15
2022-10-05T11:08:16.716Z,15.20
2022-10-05T11:10:59.811Z,15.28
2022-10-05T11:13:38.223Z,15.36
2022-10-05T11:19:02.192Z,15.42
2022-10-05T11:21:33.822Z,15.47
2022-10-05T11:24:09.276Z,15.52
2022-10-05T11:26:55.203Z,15.57
2022-10-05T11:29:49.063Z,15.73
2022-10-05T11:32:57.574Z,15.81
2022-10-05T11:35:54.866Z,15.89
2022-10-05T11:39:02.007Z,15.85
2022-10-05T11:41:52.899Z,15.98
2022-10-05T11:44:25.243Z,15.95
2022-10-05T11:47:14.304Z,16.00
2022-10-05T11:50:06.496Z,15.95
2022-10-05T11:52:40.424Z,15.88
2022-10-05T11:55:19.533Z,15.82
2022-10-05T11:57:50.936Z,15.78
2022-10-05T12:00:23.195Z,15.77
2022-10-05T12:03:12.947Z,15.75
2022-10-05T12:05:56.780Z,15.66
2022-10-05T12:08:44.784Z,15.62
2022-10-05T12:11:33.083Z,15.56
2022-10-05T12:14:06.851Z,15.53
2022-10-05T12:17:08.974Z,15.48
2022-10-05T12:19:46.594Z,15.51
2022-10-05T12:22:47.387Z,15.52
2022-10-05T12:25:48.246Z,15.52
2022-10-05T12:28:21.151Z,15.57
2022-10-05T12:31:08.115Z,15.64
2022-10-05T12:33:38.772Z,15.74
2022-10-05T12:36:13.002Z,15.76
2022-10-05T12:39:03.389Z,15.73
2022-10-05T12:41:38.560Z,15.66
2022-10-05T12:44:09.021Z,15.59
2022-10-05T12:47:04.955Z,15.60
2022-10-05T12:49:55.472Z,15.62
2022-10-05T12:52:32.396Z,15.60
2022-10-05T12:55:11.248Z,15.55
2022-10-05T12:57:47.296Z,15.54
2022-10-05T13:00:22.690Z,15.51
2022-10-05T13:02:51.374Z,15.51
2022-10-05T13:05:49.798Z,15.51
2022-10-05T13:08:34.036Z,15.48
2022-10-05T13:11:06.471Z,15.49
2022-10-05T13:13:46.649Z,15.49
2022-10-05T13:16:17.084Z,15.49
2022-10-05T13:19:12.278Z,15.46
2022-10-05T13:22:00.506Z,15.39
2022-10-05T13:24:33.508Z,15.36
2022-10-05T13:27:08.438Z,15.33
2022-10-05T13:29:42.715Z,15.30
2022-10-05T13:32:25.798Z,15.29
2022-10-05T13:35:17.126Z,15.29
2022-10-05T13:38:00.310Z,15.25
2022-10-05T13:40:54.620Z,15.28
2022-10-05T13:43:46.054Z,15.26
2022-10-05T13:46:16.220Z,15.27
2022-10-05T13:49:08.237Z,15.22
2022-10-05T13:51:37.490Z,15.21
2022-10-05T13:54:06.814Z,15.22
2022-10-05T13:56:46.515Z,15.17
2022-10-05T13:59:33.558Z,15.16
2022-10-05T14:02:10.348Z,15.20
2022-10-05T14:04:49.394Z,15.20
2022-10-05T14:07:36.091Z,15.17
2022-10-05T14:10:04.638Z,15.13
2022-10-05T14:12:39.362Z,15.17
2022-10-05T14:15:38.484Z,15.15
2022-10-05T14:18:37.147Z,15.16
2022-10-05T14:21:12.789Z,15.12
2022-10-05T14:23:39.511Z,15.11
2022-10-05T14:26:33.396Z,15.08
2022-10-05T14:29:17.660Z,15.07
2022-10-05T14:31:52.564Z,15.02
2022-10-05T14:34:56.373Z,15.02
2022-10-05T14:37:32.231Z,14.99
2022-10-05T14:40:07.532Z,14.96
2022-10-05T14:42:46.954Z,14.95
2022-10-05T14:45:18.635Z,14.92
2022-10-05T14:47:50.388Z,14.92
2022-10-05T14:50:26.055Z,14.87
2022-10-05T14:53:10.906Z,14.87
2022-10-05T14:56:18.506Z,14.84
2022-10-05T14:59:07.575Z,14.83
2022-10-05T15:01:36.588Z,14.82
2022-10-05T15:04:14.291Z,14.84
2022-10-05T15:06:57.625Z,14.83
2022-10-05T15:09:51.029Z,14.78
2022-10-05T15:12:32.172Z,14.76
2022-10-05T15:15:06.831Z,14.82
2022-10-05T15:17:44.740Z,14.84
2022-10-05T15:20:24.520Z,14.86
2022-10-05T15:23:23.635Z,14.81
2022-10-05T15:25:53.546Z,14.80
2022-10-05T15:28:33.292Z,14.78
2022-10-05T15:31:17.494Z,14.80
2022-10-05T15:33:58.978Z,14.81
2022-10-05T15:36:55.923Z,14.78
2022-10-05T15:39:34.581Z,14.77
2022-10-05T15:42:03.937Z,14.81
2022-10-05T15:44:49.057Z,14.78
2022-10-05T15:47:59.456Z,14.78
2022-10-05T15:50:28.412Z,14.79
2022-10-05T15:53:13.036Z,14.82
2022-10-05T15:55:47.069Z,14.82
2022-10-05T15:58:39.348Z,14.81
2022-10-05T16:01:33.291Z,14.80
2022-10-05T16:04:11.403Z,14.78
2022-10-05T16:07:31.357Z,14.77
2022-10-05T16:10:18.359Z,14.77
2022-10-05T16:12:55.875Z,14.77
2022-10-05T16:15:29.179Z,14.78
2022-10-05T16:18:13.060Z,14.77
2022-10-05T16:20:50.395Z,14.77
2022-10-05T16:23:52.556Z,14.76
2022-10-05T16:26:34.869Z,14.79
2022-10-05T16:29:15.108Z,14.77
2022-10-05T16:32:02.707Z,14.82
2022-10-05T16:34:49.286Z,14.87
2022-10-05T16:37:35.589Z,14.87
2022-10-05T16:40:14.079Z,14.84
2022-10-05T16:42:59.762Z,14.82
2022-10-05T16:45:51.574Z,14.78
2022-10-05T16:48:27.129Z,14.83
2022-10-05T16:51:12.855Z,14.92
2022-10-05T16:53:45.137Z,14.94
2022-10-05T16:56:15.510Z,15.00
2022-10-05T16:58:53.924Z,15.03
2022-10-05T17:01:32.499Z,15.02
2022-10-05T17:04:29.235Z,15.06
2022-10-05T17:07:19.003Z,15.11
2022-10-05T17:09:51.417Z,15.13
2022-10-05T17:12:36.660Z,15.16
2022-10-05T17:15:28.693Z,15.19
2022-10-05T17:18:24.803Z,15.30
2022-10-05T17:21:02.449Z,15.25
2022-10-05T17:23:50.522Z,15.32
2022-10-05T17:26:23.035Z,15.40
2022-10-05T17:28:52.295Z,15.42
2022-10-05T17:31:21.589Z,15.52
2022-10-05T17:34:01.377Z,15.52
2022-10-05T17:36:47.634Z,15.47
2022-10-05T17:39:18.226Z,15.49
2022-10-05T17:41:45.388Z,15.57
2022-10-05T17:44:19.524Z,15.58
2022-10-05T17:46:49.738Z,15.55
2022-10-05T17:49:25.947Z,15.56
2022-10-05T17:52:11.089Z,15.64
2022-10-05T17:55:05.197Z,15.60
2022-10-05T17:57:31.901Z,15.63
2022-10-05T18:00:01.972Z,15.65
2022-10-05T18:02:36.378Z,15.64
2022-10-05T18:05:12.568Z,15.61
2022-10-05T18:07:49.574Z,15.65
2022-10-05T18:10:29.323Z,15.66
2022-10-05T18:12:58.687Z,15.66
2022-10-05T18:15:25.053Z,15.70
2022-10-05T18:17:57.129Z,15.66
2022-10-05T18:20:26.890Z,15.64
2022-10-05T18:23:03.426Z,15.62
2022-10-05T18:25:47.993Z,15.63
2022-10-05T18:28:52.148Z,15.66
2022-10-05T18:31:26.326Z,15.65
2022-10-05T18:34:05.190Z,15.67
2022-10-05T18:37:07.150Z,15.71
2022-10-05T18:40:10.188Z,15.70
2022-10-05T18:42:41.598Z,15.77
2022-10-05T18:45:22.753Z,15.75
2022-10-05T18:48:07.441Z,15.75
2022-10-05T18:50:44.220Z,15.71
2022-10-05T18:53:25.744Z,15.80
2022-10-05T18:56:17.086Z,15.79
2022-10-05T18:58:59.216Z,15.80
2022-10-05T19:01:30.353Z,15.77
2022-10-05T19:04:19.139Z,15.79
2022-10-05T19:07:16.734Z,15.85
2022-10-05T19:10:11.493Z,15.80
2022-10-05T19:12:59.319Z,15.77
2022-10-05T19:15:46.972Z,15.79
2022-10-05T19:18:35.283Z,15.75
2022-10-05T19:21:21.485Z,15.82
2022-10-05T19:24:16.753Z,15.81
2022-10-05T19:27:03.110Z,15.73
2022-10-05T19:29:47.421Z,15.67
2022-10-05T19:32:39.643Z,15.77
2022-10-05T19:35:31.714Z,15.76
2022-10-05T19:38:15.369Z,15.74
2022-10-05T19:41:03.548Z,15.64
2022-10-05T19:44:08.813Z,15.39
2022-10-05T19:46:56.226Z,15.24
2022-10-05T19:49:52.516Z,15.24
2022-10-05T19:52:28.421Z,15.21
2022-10-05T19:55:22.363Z,15.10
2022-10-05T19:57:54.759Z,15.04
2022-10-05T20:00:35.544Z,14.88
2022-10-05T20:03:16.462Z,14.82
2022-10-05T20:05:43.218Z,14.79
2022-10-05T20:08:19.863Z,14.84
2022-10-05T20:11:04.207Z,14.89
2022-10-05T20:13:33.413Z,14.88
2022-10-05T20:16:33.919Z,14.81
2022-10-05T20:19:49.786Z,14.65
2022-10-05T20:22:35.763Z,14.49
2022-10-05T20:25:18.301Z,14.36
2022-10-05T20:27:46.663Z,14.29
2022-10-05T20:30:19.063Z,14.22
2022-10-05T20:32:49.827Z,14.18
2022-10-05T20:35:18.122Z,14.11
2022-10-05T20:37:44.598Z,14.06
2022-10-05T20:40:11.458Z,14.00
2022-10-05T20:42:38.023Z,13.96
2022-10-05T20:45:06.264Z,13.91
2022-10-05T20:47:33.697Z,13.87
2022-10-05T20:50:01.383Z,13.87
2022-10-05T20:52:27.851Z,13.90
2022-10-05T20:54:56.962Z,13.90
2022-10-05T20:57:24.208Z,13.95
2022-10-05T20:59:51.630Z,13.94
2022-10-05T21:02:20.898Z,13.99
2022-10-05T21:04:47.666Z,14.01
2022-10-05T21:07:19.605Z,14.12
2022-10-05T21:09:46.601Z,14.21
2022-10-05T21:12:13.746Z,14.35
2022-10-05T21:14:40.572Z,14.46
2022-10-05T21:17:07.359Z,14.54
2022-10-05T21:19:38.213Z,14.49
2022-10-05T21:22:07.220Z,14.45
2022-10-05T21:24:35.860Z,14.37
2022-10-05T21:27:02.694Z,14.25
2022-10-05T21:29:29.441Z,14.09
2022-10-05T21:31:56.418Z,14.00
2022-10-05T21:34:23.009Z,13.93
2022-10-05T21:36:49.681Z,13.90
2022-10-05T21:39:16.797Z,13.90
2022-10-05T21:41:43.287Z,13.85
2022-10-05T21:44:09.766Z,13.85
2022-10-05T21:46:37.023Z,13.78
2022-10-05T21:49:05.622Z,13.76
2022-10-05T21:51:32.954Z,13.71
2022-10-05T21:54:03.535Z,13.69
2022-10-05T21:56:42.191Z,13.66
2022-10-05T21:59:11.271Z,13.59
2022-10-05T22:01:37.731Z,13.61
2022-10-05T22:04:05.612Z,13.64
2022-10-05T22:06:32.272Z,13.60
2022-10-05T22:08:59.541Z,13.60
2022-10-05T22:11:26.498Z,13.58
2022-10-05T22:13:53.424Z,13.58
2022-10-05T22:16:22.226Z,13.58
2022-10-05T22:18:49.170Z,13.61
2022-10-05T22:21:16.099Z,13.64
2022-10-05T22:23:43.956Z,13.64
2022-10-05T22:26:12.446Z,13.64
2022-10-05T22:28:39.901Z,13.64
2022-10-05T22:31:07.843Z,13.70
2022-10-05T22:33:35.075Z,13.73
2022-10-05T22:36:01.561Z,13.72
2022-10-05T22:38:30.281Z,13.74
2022-10-05T22:40:57.212Z,13.75
2022-10-05T22:43:24.907Z,13.77
2022-10-05T22:45:51.479Z,13.77
2022-10-05T22:48:18.503Z,13.79
2022-10-05T22:50:45.830Z,13.72
2022-10-05T22:53:12.770Z,13.59
2022-10-05T22:55:39.279Z,13.48
2022-10-05T22:58:05.837Z,13.39
2022-10-05T23:00:56.429Z,13.20
2022-10-05T23:03:19.946Z,13.05
2022-10-05T23:05:46.476Z,12.94
2022-10-05T23:08:12.936Z,12.84
2022-10-05T23:10:39.418Z,12.74
2022-10-05T23:13:06.261Z,12.69
2022-10-05T23:15:34.231Z,12.60
2022-10-05T23:18:00.745Z,12.56
2022-10-05T23:20:27.320Z,12.54
2022-10-05T23:22:53.772Z,12.51
2022-10-05T23:25:22.090Z,12.50
2022-10-05T23:27:48.671Z,12.49
2022-10-05T23:30:15.269Z,12.50
2022-10-05T23:32:43.450Z,12.48
2022-10-05T23:35:11.733Z,12.48
2022-10-05T23:37:42.929Z,12.46
2022-10-05T23:40:12.483Z,12.46
2022-10-05T23:42:42.074Z,12.46
2022-10-05T23:45:10.526Z,12.41
2022-10-05T23:47:37.231Z,12.49
2022-10-05T23:50:05.260Z,12.53
2022-10-05T23:52:31.896Z,12.50
2022-10-05T23:54:58.356Z,12.44
2022-10-05T23:57:25.457Z,12.45
2022-10-05T23:59:52.072Z,12.46
